sensor_id;sensor_type;location;lat;lon;timestamp;pressure;altitude;pressure_sealevel;temperature;humidity
61769;BME280;47669;48.712;9.016;2022-12-18T00:00:28;97540.38;;;-13.92;100.00
61769;BME280;47669;48.712;9.016;2022-12-18T00:02:53;97546.03;;;-13.82;100.00
61769;BME280;47669;48.712;9.016;2022-12-18T00:05:18;97547.41;;;-13.72;100.00
61769;BME280;47669;48.712;9.016;2022-12-18T00:07:44;97548.09;;;-13.67;100.00
61769;BME280;47669;48.712;9.016;2022-12-18T00:10:09;97548.56;;;-13.82;100.00
61769;BME280;47669;48.712;9.016;2022-12-18T00:12:34;97544.78;;;-13.69;100.00
61769;BME280;47669;48.712;9.016;2022-12-18T00:14:59;97546.09;;;-13.56;100.00
61769;BME280;47669;48.712;9.016;2022-12-18T00:17:25;97543.00;;;-13.95;100.00
61769;BME280;47669;48.712;9.016;2022-12-18T00:19:50;97553.22;;;-13.68;100.00
61769;BME280;47669;48.712;9.016;2022-12-18T00:22:15;97534.53;;;-13.94;100.00
61769;BME280;47669;48.712;9.016;2022-12-18T00:24:40;97544.06;;;-14.02;100.00
61769;BME280;47669;48.712;9.016;2022-12-18T00:27:06;97547.97;;;-13.92;100.00
61769;BME280;47669;48.712;9.016;2022-12-18T00:29:31;97542.78;;;-13.87;100.00
61769;BME280;47669;48.712;9.016;2022-12-18T00:31:56;97543.22;;;-14.03;100.00
61769;BME280;47669;48.712;9.016;2022-12-18T00:34:22;97555.47;;;-13.89;100.00
61769;BME280;47669;48.712;9.016;2022-12-18T00:36:48;97551.06;;;-13.81;100.00
61769;BME280;47669;48.712;9.016;2022-12-18T00:39:13;97550.69;;;-13.98;100.00
61769;BME280;47669;48.712;9.016;2022-12-18T00:41:38;97550.66;;;-13.97;100.00
61769;BME280;47669;48.712;9.016;2022-12-18T00:44:22;97551.66;;;-13.73;100.00
61769;BME280;47669;48.712;9.016;2022-12-18T00:46:48;97552.25;;;-13.94;100.00
61769;BME280;47669;48.712;9.016;2022-12-18T00:49:16;97560.03;;;-14.00;100.00
61769;BME280;47669;48.712;9.016;2022-12-18T00:51:41;97557.88;;;-14.14;100.00
61769;BME280;47669;48.712;9.016;2022-12-18T00:54:07;97549.06;;;-14.01;100.00
61769;BME280;47669;48.712;9.016;2022-12-18T00:56:35;97552.91;;;-13.87;100.00
61769;BME280;47669;48.712;9.016;2022-12-18T00:59:00;97556.59;;;-13.98;100.00
61769;BME280;47669;48.712;9.016;2022-12-18T01:01:25;97565.59;;;-14.19;100.00
61769;BME280;47669;48.712;9.016;2022-12-18T01:03:51;97570.34;;;-13.77;100.00
61769;BME280;47669;48.712;9.016;2022-12-18T01:06:16;97567.84;;;-13.78;100.00
61769;BME280;47669;48.712;9.016;2022-12-18T01:08:42;97564.25;;;-14.01;100.00
61769;BME280;47669;48.712;9.016;2022-12-18T01:11:10;97553.69;;;-14.15;100.00
61769;BME280;47669;48.712;9.016;2022-12-18T01:13:37;97547.19;;;-14.24;100.00
61769;BME280;47669;48.712;9.016;2022-12-18T01:16:02;97559.19;;;-14.32;100.00
61769;BME280;47669;48.712;9.016;2022-12-18T01:18:28;97554.69;;;-14.21;100.00
61769;BME280;47669;48.712;9.016;2022-12-18T01:20:53;97547.59;;;-14.08;100.00
61769;BME280;47669;48.712;9.016;2022-12-18T01:23:18;97553.63;;;-14.12;100.00
61769;BME280;47669;48.712;9.016;2022-12-18T01:25:44;97555.78;;;-14.30;100.00
61769;BME280;47669;48.712;9.016;2022-12-18T01:28:09;97554.03;;;-13.98;100.00
61769;BME280;47669;48.712;9.016;2022-12-18T01:30:34;97553.28;;;-13.72;100.00
61769;BME280;47669;48.712;9.016;2022-12-18T01:33:00;97550.44;;;-14.20;100.00
61769;BME280;47669;48.712;9.016;2022-12-18T01:35:25;97549.97;;;-14.33;100.00
61769;BME280;47669;48.712;9.016;2022-12-18T01:37:54;97560.72;;;-14.26;100.00
61769;BME280;47669;48.712;9.016;2022-12-18T01:40:19;97566.53;;;-14.23;100.00
61769;BME280;47669;48.712;9.016;2022-12-18T01:42:50;97569.75;;;-14.16;100.00
61769;BME280;47669;48.712;9.016;2022-12-18T01:47:50;97572.41;;;-13.60;100.00
61769;BME280;47669;48.712;9.016;2022-12-18T01:50:18;97567.81;;;-13.77;100.00
61769;BME280;47669;48.712;9.016;2022-12-18T01:52:49;97557.34;;;-13.94;100.00
61769;BME280;47669;48.712;9.016;2022-12-18T01:55:18;97554.69;;;-13.91;100.00
61769;BME280;47669;48.712;9.016;2022-12-18T01:57:44;97551.59;;;-13.71;100.00
61769;BME280;47669;48.712;9.016;2022-12-18T02:00:17;97546.22;;;-13.60;100.00
61769;BME280;47669;48.712;9.016;2022-12-18T02:02:44;97540.97;;;-13.54;100.00
61769;BME280;47669;48.712;9.016;2022-12-18T02:05:11;97544.38;;;-13.55;100.00
61769;BME280;47669;48.712;9.016;2022-12-18T02:12:49;97555.44;;;-13.30;100.00
61769;BME280;47669;48.712;9.016;2022-12-18T02:15:26;97555.25;;;-13.25;100.00
61769;BME280;47669;48.712;9.016;2022-12-18T02:18:18;97547.78;;;-13.56;100.00
61769;BME280;47669;48.712;9.016;2022-12-18T02:20:47;97541.75;;;-13.52;100.00
61769;BME280;47669;48.712;9.016;2022-12-18T02:23:50;97557.34;;;-13.36;100.00
61769;BME280;47669;48.712;9.016;2022-12-18T02:26:26;97548.44;;;-13.50;100.00
61769;BME280;47669;48.712;9.016;2022-12-18T02:28:59;97564.88;;;-13.63;100.00
61769;BME280;47669;48.712;9.016;2022-12-18T02:31:30;97563.94;;;-13.60;100.00
61769;BME280;47669;48.712;9.016;2022-12-18T02:34:00;97574.88;;;-13.58;100.00
61769;BME280;47669;48.712;9.016;2022-12-18T02:36:28;97569.00;;;-13.60;100.00
61769;BME280;47669;48.712;9.016;2022-12-18T02:38:55;97571.88;;;-13.43;100.00
61769;BME280;47669;48.712;9.016;2022-12-18T02:41:22;97573.66;;;-12.92;100.00
61769;BME280;47669;48.712;9.016;2022-12-18T02:43:49;97573.81;;;-13.51;100.00
61769;BME280;47669;48.712;9.016;2022-12-18T02:46:33;97579.78;;;-13.25;100.00
61769;BME280;47669;48.712;9.016;2022-12-18T02:49:22;97571.81;;;-13.40;100.00
61769;BME280;47669;48.712;9.016;2022-12-18T02:59:58;97588.25;;;-13.53;100.00
61769;BME280;47669;48.712;9.016;2022-12-18T03:02:43;97567.69;;;-13.44;100.00
61769;BME280;47669;48.712;9.016;2022-12-18T03:05:15;97566.03;;;-13.45;100.00
61769;BME280;47669;48.712;9.016;2022-12-18T03:07:56;97566.22;;;-13.51;100.00
61769;BME280;47669;48.712;9.016;2022-12-18T03:10:28;97572.16;;;-13.52;100.00
61769;BME280;47669;48.712;9.016;2022-12-18T03:13:02;97581.56;;;-13.29;100.00
61769;BME280;47669;48.712;9.016;2022-12-18T03:15:40;97587.88;;;-13.41;100.00
61769;BME280;47669;48.712;9.016;2022-12-18T03:18:17;97590.22;;;-13.35;100.00
61769;BME280;47669;48.712;9.016;2022-12-18T03:20:47;97590.03;;;-13.28;100.00
61769;BME280;47669;48.712;9.016;2022-12-18T03:23:16;97590.91;;;-13.03;100.00
61769;BME280;47669;48.712;9.016;2022-12-18T03:25:44;97595.41;;;-13.11;100.00
61769;BME280;47669;48.712;9.016;2022-12-18T03:28:13;97587.78;;;-13.38;100.00
61769;BME280;47669;48.712;9.016;2022-12-18T03:30:41;97587.41;;;-13.27;100.00
61769;BME280;47669;48.712;9.016;2022-12-18T03:33:12;97592.59;;;-13.58;100.00
61769;BME280;47669;48.712;9.016;2022-12-18T03:35:41;97587.97;;;-13.44;100.00
61769;BME280;47669;48.712;9.016;2022-12-18T03:38:08;97582.97;;;-13.19;100.00
61769;BME280;47669;48.712;9.016;2022-12-18T03:41:03;97581.84;;;-13.10;100.00
61769;BME280;47669;48.712;9.016;2022-12-18T03:46:24;97579.97;;;-13.03;100.00
61769;BME280;47669;48.712;9.016;2022-12-18T03:49:12;97580.91;;;-12.81;100.00
61769;BME280;47669;48.712;9.016;2022-12-18T03:51:50;97588.09;;;-12.94;100.00
61769;BME280;47669;48.712;9.016;2022-12-18T03:54:17;97590.38;;;-12.86;100.00
61769;BME280;47669;48.712;9.016;2022-12-18T03:56:46;97588.88;;;-12.92;100.00
61769;BME280;47669;48.712;9.016;2022-12-18T03:59:15;97591.22;;;-12.85;100.00
61769;BME280;47669;48.712;9.016;2022-12-18T04:01:46;97591.00;;;-13.06;100.00
61769;BME280;47669;48.712;9.016;2022-12-18T04:04:14;97578.16;;;-13.28;100.00
61769;BME280;47669;48.712;9.016;2022-12-18T04:06:42;97580.31;;;-13.16;100.00
61769;BME280;47669;48.712;9.016;2022-12-18T04:09:09;97580.97;;;-13.36;100.00
61769;BME280;47669;48.712;9.016;2022-12-18T04:11:34;97581.91;;;-13.38;100.00
61769;BME280;47669;48.712;9.016;2022-12-18T04:14:00;97591.00;;;-13.33;100.00
61769;BME280;47669;48.712;9.016;2022-12-18T04:16:26;97584.06;;;-13.27;100.00
61769;BME280;47669;48.712;9.016;2022-12-18T04:18:51;97586.13;;;-13.39;100.00
61769;BME280;47669;48.712;9.016;2022-12-18T04:21:17;97582.84;;;-13.42;100.00
61769;BME280;47669;48.712;9.016;2022-12-18T04:23:42;97583.88;;;-13.48;100.00
61769;BME280;47669;48.712;9.016;2022-12-18T04:26:07;97584.53;;;-13.43;100.00
61769;BME280;47669;48.712;9.016;2022-12-18T04:28:33;97598.78;;;-13.39;100.00
61769;BME280;47669;48.712;9.016;2022-12-18T04:30:58;97603.19;;;-13.17;100.00
61769;BME280;47669;48.712;9.016;2022-12-18T04:33:23;97608.00;;;-13.10;100.00
61769;BME280;47669;48.712;9.016;2022-12-18T04:35:49;97597.44;;;-12.96;100.00
61769;BME280;47669;48.712;9.016;2022-12-18T04:38:14;97598.03;;;-13.42;100.00
61769;BME280;47669;48.712;9.016;2022-12-18T04:40:39;97600.41;;;-13.36;100.00
61769;BME280;47669;48.712;9.016;2022-12-18T04:43:05;97604.94;;;-13.46;100.00
61769;BME280;47669;48.712;9.016;2022-12-18T04:45:31;97598.38;;;-13.53;100.00
61769;BME280;47669;48.712;9.016;2022-12-18T04:47:58;97587.41;;;-13.27;100.00
61769;BME280;47669;48.712;9.016;2022-12-18T04:50:23;97577.91;;;-13.75;100.00
61769;BME280;47669;48.712;9.016;2022-12-18T04:52:49;97578.66;;;-13.43;100.00
61769;BME280;47669;48.712;9.016;2022-12-18T04:55:14;97578.13;;;-13.26;100.00
61769;BME280;47669;48.712;9.016;2022-12-18T04:57:40;97575.53;;;-13.52;100.00
61769;BME280;47669;48.712;9.016;2022-12-18T05:00:05;97586.72;;;-13.59;100.00
61769;BME280;47669;48.712;9.016;2022-12-18T05:02:31;97579.53;;;-13.18;100.00
61769;BME280;47669;48.712;9.016;2022-12-18T05:04:57;97579.88;;;-13.28;100.00
61769;BME280;47669;48.712;9.016;2022-12-18T05:07:22;97573.84;;;-13.24;100.00
61769;BME280;47669;48.712;9.016;2022-12-18T05:09:47;97572.59;;;-13.38;100.00
61769;BME280;47669;48.712;9.016;2022-12-18T05:12:13;97590.13;;;-13.32;100.00
61769;BME280;47669;48.712;9.016;2022-12-18T05:14:38;97590.41;;;-13.41;100.00
61769;BME280;47669;48.712;9.016;2022-12-18T05:17:03;97584.09;;;-13.29;100.00
61769;BME280;47669;48.712;9.016;2022-12-18T05:19:29;97583.19;;;-13.26;100.00
61769;BME280;47669;48.712;9.016;2022-12-18T05:21:54;97580.84;;;-13.33;100.00
61769;BME280;47669;48.712;9.016;2022-12-18T05:24:19;97590.09;;;-13.30;100.00
61769;BME280;47669;48.712;9.016;2022-12-18T05:26:44;97591.09;;;-13.36;100.00
61769;BME280;47669;48.712;9.016;2022-12-18T05:29:10;97585.44;;;-13.17;100.00
61769;BME280;47669;48.712;9.016;2022-12-18T05:31:38;97588.06;;;-13.20;100.00
61769;BME280;47669;48.712;9.016;2022-12-18T05:34:03;97595.09;;;-13.28;100.00
61769;BME280;47669;48.712;9.016;2022-12-18T05:36:29;97595.66;;;-13.19;100.00
61769;BME280;47669;48.712;9.016;2022-12-18T05:38:54;97606.09;;;-13.01;100.00
61769;BME280;47669;48.712;9.016;2022-12-18T05:41:19;97598.25;;;-13.22;100.00
61769;BME280;47669;48.712;9.016;2022-12-18T05:43:45;97597.19;;;-13.41;100.00
61769;BME280;47669;48.712;9.016;2022-12-18T05:46:16;97595.72;;;-13.22;100.00
61769;BME280;47669;48.712;9.016;2022-12-18T05:48:43;97596.41;;;-13.43;100.00
61769;BME280;47669;48.712;9.016;2022-12-18T05:51:11;97584.09;;;-13.29;100.00
61769;BME280;47669;48.712;9.016;2022-12-18T05:53:37;97585.03;;;-13.30;100.00
61769;BME280;47669;48.712;9.016;2022-12-18T05:56:06;97576.41;;;-13.26;100.00
61769;BME280;47669;48.712;9.016;2022-12-18T05:58:32;97580.66;;;-13.26;100.00
61769;BME280;47669;48.712;9.016;2022-12-18T06:01:05;97575.34;;;-13.45;100.00
61769;BME280;47669;48.712;9.016;2022-12-18T06:03:31;97591.41;;;-13.18;100.00
61769;BME280;47669;48.712;9.016;2022-12-18T06:05:56;97588.69;;;-13.14;100.00
61769;BME280;47669;48.712;9.016;2022-12-18T06:08:21;97591.78;;;-13.04;100.00
61769;BME280;47669;48.712;9.016;2022-12-18T06:10:50;97597.47;;;-13.24;100.00
61769;BME280;47669;48.712;9.016;2022-12-18T06:13:16;97594.91;;;-13.22;100.00
61769;BME280;47669;48.712;9.016;2022-12-18T06:15:42;97601.19;;;-13.34;100.00
61769;BME280;47669;48.712;9.016;2022-12-18T06:18:07;97612.72;;;-13.25;100.00
61769;BME280;47669;48.712;9.016;2022-12-18T06:20:32;97606.34;;;-13.37;100.00
61769;BME280;47669;48.712;9.016;2022-12-18T06:22:58;97611.94;;;-13.27;100.00
61769;BME280;47669;48.712;9.016;2022-12-18T06:25:24;97610.72;;;-13.42;100.00
61769;BME280;47669;48.712;9.016;2022-12-18T06:27:49;97614.50;;;-13.56;100.00
61769;BME280;47669;48.712;9.016;2022-12-18T06:30:15;97613.81;;;-13.62;100.00
61769;BME280;47669;48.712;9.016;2022-12-18T06:32:40;97622.31;;;-13.63;100.00
61769;BME280;47669;48.712;9.016;2022-12-18T06:35:06;97618.69;;;-13.55;100.00
61769;BME280;47669;48.712;9.016;2022-12-18T06:37:31;97622.53;;;-13.71;100.00
61769;BME280;47669;48.712;9.016;2022-12-18T06:39:56;97617.09;;;-13.59;100.00
61769;BME280;47669;48.712;9.016;2022-12-18T06:42:23;97616.50;;;-13.67;100.00
61769;BME280;47669;48.712;9.016;2022-12-18T06:44:48;97618.31;;;-13.72;100.00
61769;BME280;47669;48.712;9.016;2022-12-18T06:47:13;97622.19;;;-13.59;100.00
61769;BME280;47669;48.712;9.016;2022-12-18T06:49:38;97615.81;;;-13.74;100.00
61769;BME280;47669;48.712;9.016;2022-12-18T06:52:04;97617.69;;;-13.79;100.00
61769;BME280;47669;48.712;9.016;2022-12-18T06:54:29;97618.53;;;-13.80;100.00
61769;BME280;47669;48.712;9.016;2022-12-18T06:56:54;97616.16;;;-13.84;100.00
61769;BME280;47669;48.712;9.016;2022-12-18T06:59:20;97631.22;;;-13.81;100.00
61769;BME280;47669;48.712;9.016;2022-12-18T07:01:45;97637.06;;;-13.78;100.00
61769;BME280;47669;48.712;9.016;2022-12-18T07:04:10;97642.06;;;-13.76;100.00
61769;BME280;47669;48.712;9.016;2022-12-18T07:06:36;97641.72;;;-13.94;100.00
61769;BME280;47669;48.712;9.016;2022-12-18T07:09:01;97651.63;;;-13.86;100.00
61769;BME280;47669;48.712;9.016;2022-12-18T07:11:26;97655.50;;;-13.73;100.00
61769;BME280;47669;48.712;9.016;2022-12-18T07:13:52;97650.28;;;-13.68;100.00
61769;BME280;47669;48.712;9.016;2022-12-18T07:16:19;97644.41;;;-13.39;100.00
61769;BME280;47669;48.712;9.016;2022-12-18T07:18:45;97643.72;;;-13.44;100.00
61769;BME280;47669;48.712;9.016;2022-12-18T07:21:14;97651.75;;;-13.59;100.00
61769;BME280;47669;48.712;9.016;2022-12-18T07:23:40;97652.50;;;-13.27;100.00
61769;BME280;47669;48.712;9.016;2022-12-18T07:26:08;97651.03;;;-13.35;100.00
61769;BME280;47669;48.712;9.016;2022-12-18T07:28:34;97659.56;;;-13.09;100.00
61769;BME280;47669;48.712;9.016;2022-12-18T07:31:07;97656.31;;;-12.86;100.00
61769;BME280;47669;48.712;9.016;2022-12-18T07:33:34;97648.16;;;-13.24;100.00
61769;BME280;47669;48.712;9.016;2022-12-18T07:36:00;97656.31;;;-13.13;100.00
61769;BME280;47669;48.712;9.016;2022-12-18T07:38:26;97650.34;;;-12.83;100.00
61769;BME280;47669;48.712;9.016;2022-12-18T07:40:52;97652.88;;;-13.12;100.00
61769;BME280;47669;48.712;9.016;2022-12-18T07:43:17;97651.03;;;-13.06;100.00
61769;BME280;47669;48.712;9.016;2022-12-18T07:45:43;97650.78;;;-12.71;100.00
61769;BME280;47669;48.712;9.016;2022-12-18T07:48:08;97647.75;;;-12.82;100.00
61769;BME280;47669;48.712;9.016;2022-12-18T07:50:33;97652.66;;;-12.24;100.00
61769;BME280;47669;48.712;9.016;2022-12-18T07:52:59;97658.72;;;-12.28;100.00
61769;BME280;47669;48.712;9.016;2022-12-18T07:55:29;97660.72;;;-12.11;100.00
61769;BME280;47669;48.712;9.016;2022-12-18T07:57:54;97651.22;;;-12.06;100.00
61769;BME280;47669;48.712;9.016;2022-12-18T08:00:19;97661.81;;;-12.20;100.00
61769;BME280;47669;48.712;9.016;2022-12-18T08:02:45;97661.69;;;-11.66;100.00
61769;BME280;47669;48.712;9.016;2022-12-18T08:05:10;97662.84;;;-11.28;100.00
61769;BME280;47669;48.712;9.016;2022-12-18T08:07:35;97662.41;;;-11.16;100.00
61769;BME280;47669;48.712;9.016;2022-12-18T08:10:00;97661.22;;;-11.07;100.00
61769;BME280;47669;48.712;9.016;2022-12-18T08:12:26;97659.28;;;-11.00;100.00
61769;BME280;47669;48.712;9.016;2022-12-18T08:14:51;97658.50;;;-10.80;100.00
61769;BME280;47669;48.712;9.016;2022-12-18T08:17:16;97660.16;;;-10.57;100.00
61769;BME280;47669;48.712;9.016;2022-12-18T08:19:42;97668.06;;;-10.43;100.00
61769;BME280;47669;48.712;9.016;2022-12-18T08:22:07;97661.69;;;-10.31;100.00
61769;BME280;47669;48.712;9.016;2022-12-18T08:24:32;97658.66;;;-10.00;100.00
61769;BME280;47669;48.712;9.016;2022-12-18T08:26:57;97664.53;;;-9.98;100.00
61769;BME280;47669;48.712;9.016;2022-12-18T08:29:23;97662.47;;;-9.89;100.00
61769;BME280;47669;48.712;9.016;2022-12-18T08:31:48;97659.97;;;-9.70;100.00
61769;BME280;47669;48.712;9.016;2022-12-18T08:34:13;97655.09;;;-9.56;100.00
61769;BME280;47669;48.712;9.016;2022-12-18T08:36:39;97663.59;;;-9.37;100.00
61769;BME280;47669;48.712;9.016;2022-12-18T08:39:05;97664.63;;;-9.03;100.00
61769;BME280;47669;48.712;9.016;2022-12-18T08:41:30;97658.69;;;-8.84;100.00
61769;BME280;47669;48.712;9.016;2022-12-18T08:43:55;97661.50;;;-8.54;100.00
61769;BME280;47669;48.712;9.016;2022-12-18T08:46:46;97666.72;;;-8.56;100.00
61769;BME280;47669;48.712;9.016;2022-12-18T08:49:12;97671.81;;;-8.38;100.00
61769;BME280;47669;48.712;9.016;2022-12-18T08:51:37;97657.53;;;-8.07;100.00
61769;BME280;47669;48.712;9.016;2022-12-18T08:54:03;97652.13;;;-7.84;100.00
61769;BME280;47669;48.712;9.016;2022-12-18T08:56:29;97647.19;;;-7.71;100.00
61769;BME280;47669;48.712;9.016;2022-12-18T08:58:55;97648.94;;;-7.38;100.00
61769;BME280;47669;48.712;9.016;2022-12-18T09:01:21;97648.47;;;-7.13;100.00
61769;BME280;47669;48.712;9.016;2022-12-18T09:03:47;97648.22;;;-7.08;100.00
61769;BME280;47669;48.712;9.016;2022-12-18T09:06:14;97643.25;;;-6.80;100.00
61769;BME280;47669;48.712;9.016;2022-12-18T09:08:41;97647.84;;;-6.55;100.00
61769;BME280;47669;48.712;9.016;2022-12-18T09:11:12;97644.91;;;-6.32;100.00
61769;BME280;47669;48.712;9.016;2022-12-18T09:13:38;97640.88;;;-6.37;100.00
61769;BME280;47669;48.712;9.016;2022-12-18T09:16:04;97637.66;;;-6.10;100.00
61769;BME280;47669;48.712;9.016;2022-12-18T09:18:29;97625.97;;;-5.85;100.00
61769;BME280;47669;48.712;9.016;2022-12-18T09:20:54;97628.50;;;-6.00;100.00
61769;BME280;47669;48.712;9.016;2022-12-18T09:23:20;97619.16;;;-5.86;100.00
61769;BME280;47669;48.712;9.016;2022-12-18T09:25:45;97630.00;;;-5.67;100.00
61769;BME280;47669;48.712;9.016;2022-12-18T09:28:16;97625.69;;;-5.66;100.00
61769;BME280;47669;48.712;9.016;2022-12-18T09:30:47;97618.72;;;-5.64;100.00
61769;BME280;47669;48.712;9.016;2022-12-18T09:33:13;97622.94;;;-5.63;100.00
61769;BME280;47669;48.712;9.016;2022-12-18T09:35:40;97622.75;;;-5.31;100.00
61769;BME280;47669;48.712;9.016;2022-12-18T09:38:07;97624.06;;;-4.97;100.00
61769;BME280;47669;48.712;9.016;2022-12-18T09:40:42;97622.41;;;-4.57;100.00
61769;BME280;47669;48.712;9.016;2022-12-18T09:43:14;97633.34;;;-4.67;100.00
61769;BME280;47669;48.712;9.016;2022-12-18T09:45:44;97627.81;;;-4.61;100.00
61769;BME280;47669;48.712;9.016;2022-12-18T09:48:18;97626.19;;;-4.62;100.00
61769;BME280;47669;48.712;9.016;2022-12-18T09:50:47;97617.22;;;-4.29;100.00
61769;BME280;47669;48.712;9.016;2022-12-18T09:53:20;97619.13;;;-3.93;100.00
61769;BME280;47669;48.712;9.016;2022-12-18T09:55:48;97619.94;;;-2.67;100.00
61769;BME280;47669;48.712;9.016;2022-12-18T09:58:28;97611.47;;;-1.41;100.00
61769;BME280;47669;48.712;9.016;2022-12-18T10:00:55;97613.00;;;-1.61;100.00
61769;BME280;47669;48.712;9.016;2022-12-18T10:03:21;97618.91;;;-2.05;100.00
61769;BME280;47669;48.712;9.016;2022-12-18T10:13:47;97614.06;;;-1.74;100.00
61769;BME280;47669;48.712;9.016;2022-12-18T10:16:26;97619.09;;;0.03;100.00
61769;BME280;47669;48.712;9.016;2022-12-18T10:24:33;97622.09;;;-2.02;100.00
61769;BME280;47669;48.712;9.016;2022-12-18T10:27:16;97620.94;;;-2.33;100.00
61769;BME280;47669;48.712;9.016;2022-12-18T10:29:44;97630.00;;;-2.51;100.00
61769;BME280;47669;48.712;9.016;2022-12-18T10:32:15;97625.50;;;-2.61;100.00
61769;BME280;47669;48.712;9.016;2022-12-18T10:34:45;97617.59;;;-2.46;100.00
61769;BME280;47669;48.712;9.016;2022-12-18T10:37:15;97617.41;;;-3.04;100.00
61769;BME280;47669;48.712;9.016;2022-12-18T10:39:41;97620.56;;;-3.38;100.00
61769;BME280;47669;48.712;9.016;2022-12-18T10:42:11;97617.38;;;-2.91;100.00
61769;BME280;47669;48.712;9.016;2022-12-18T10:44:40;97612.03;;;-2.77;100.00
61769;BME280;47669;48.712;9.016;2022-12-18T10:47:12;97610.63;;;-3.31;100.00
61769;BME280;47669;48.712;9.016;2022-12-18T10:49:45;97615.31;;;-3.36;100.00
61769;BME280;47669;48.712;9.016;2022-12-18T10:52:22;97623.97;;;-3.88;100.00
61769;BME280;47669;48.712;9.016;2022-12-18T10:54:57;97625.50;;;-3.86;100.00
61769;BME280;47669;48.712;9.016;2022-12-18T10:59:56;97615.41;;;-3.38;100.00
61769;BME280;47669;48.712;9.016;2022-12-18T11:02:39;97611.53;;;-3.19;100.00
61769;BME280;47669;48.712;9.016;2022-12-18T11:07:50;97600.31;;;-1.86;100.00
61769;BME280;47669;48.712;9.016;2022-12-18T11:10:20;97599.59;;;-1.88;100.00
61769;BME280;47669;48.712;9.016;2022-12-18T11:12:47;97591.16;;;-1.56;100.00
61769;BME280;47669;48.712;9.016;2022-12-18T11:15:21;97596.09;;;-1.08;100.00
61769;BME280;47669;48.712;9.016;2022-12-18T11:17:50;97585.84;;;-0.98;100.00
61769;BME280;47669;48.712;9.016;2022-12-18T11:20:30;97582.34;;;-1.20;100.00
61769;BME280;47669;48.712;9.016;2022-12-18T11:23:05;97586.03;;;-2.14;100.00
61769;BME280;47669;48.712;9.016;2022-12-18T11:25:36;97591.34;;;-2.40;100.00
61769;BME280;47669;48.712;9.016;2022-12-18T11:33:47;97583.28;;;-1.10;100.00
61769;BME280;47669;48.712;9.016;2022-12-18T11:36:14;97587.59;;;-2.01;100.00
61769;BME280;47669;48.712;9.016;2022-12-18T11:38:41;97584.94;;;-1.76;100.00
61769;BME280;47669;48.712;9.016;2022-12-18T11:41:15;97569.00;;;-1.48;100.00
61769;BME280;47669;48.712;9.016;2022-12-18T11:43:55;97576.72;;;-1.70;100.00
61769;BME280;47669;48.712;9.016;2022-12-18T11:46:30;97576.69;;;-2.51;100.00
61769;BME280;47669;48.712;9.016;2022-12-18T11:49:10;97576.56;;;-1.91;100.00
61769;BME280;47669;48.712;9.016;2022-12-18T11:51:44;97571.91;;;-1.86;100.00
61769;BME280;47669;48.712;9.016;2022-12-18T11:54:14;97567.59;;;-2.21;100.00
61769;BME280;47669;48.712;9.016;2022-12-18T11:56:51;97567.06;;;-2.38;100.00
61769;BME280;47669;48.712;9.016;2022-12-18T11:59:30;97555.47;;;-2.43;100.00
61769;BME280;47669;48.712;9.016;2022-12-18T12:05:12;97553.78;;;-2.55;100.00
61769;BME280;47669;48.712;9.016;2022-12-18T12:10:30;97555.44;;;-2.79;100.00
61769;BME280;47669;48.712;9.016;2022-12-18T12:21:16;97544.63;;;-2.13;100.00
61769;BME280;47669;48.712;9.016;2022-12-18T12:26:45;97545.03;;;-1.72;100.00
61769;BME280;47669;48.712;9.016;2022-12-18T12:32:11;97544.75;;;-2.14;100.00
61769;BME280;47669;48.712;9.016;2022-12-18T12:39:51;97546.28;;;-2.01;100.00
61769;BME280;47669;48.712;9.016;2022-12-18T12:42:32;97551.38;;;-2.34;100.00
61769;BME280;47669;48.712;9.016;2022-12-18T12:45:34;97548.69;;;-1.75;100.00
61769;BME280;47669;48.712;9.016;2022-12-18T12:48:02;97560.16;;;-1.56;100.00
61769;BME280;47669;48.712;9.016;2022-12-18T12:50:33;97562.13;;;-2.05;100.00
61769;BME280;47669;48.712;9.016;2022-12-18T12:53:01;97561.69;;;-1.76;100.00
61769;BME280;47669;48.712;9.016;2022-12-18T12:55:31;97553.59;;;-1.83;100.00
61769;BME280;47669;48.712;9.016;2022-12-18T12:58:17;97556.06;;;-1.82;100.00
61769;BME280;47669;48.712;9.016;2022-12-18T13:09:30;97566.75;;;-1.52;100.00
61769;BME280;47669;48.712;9.016;2022-12-18T13:12:02;97571.00;;;-1.40;100.00
61769;BME280;47669;48.712;9.016;2022-12-18T13:14:47;97569.00;;;-1.48;100.00
61769;BME280;47669;48.712;9.016;2022-12-18T13:19:50;97568.22;;;-1.95;100.00
61769;BME280;47669;48.712;9.016;2022-12-18T13:22:25;97567.66;;;-2.10;100.00
61769;BME280;47669;48.712;9.016;2022-12-18T13:24:53;97561.91;;;-2.02;100.00
61769;BME280;47669;48.712;9.016;2022-12-18T13:30:41;97547.97;;;-1.77;100.00
61769;BME280;47669;48.712;9.016;2022-12-18T13:35:51;97548.88;;;-2.12;100.00
61769;BME280;47669;48.712;9.016;2022-12-18T13:38:34;97549.94;;;-1.69;100.00
61769;BME280;47669;48.712;9.016;2022-12-18T13:43:41;97539.88;;;-1.72;100.00
61769;BME280;47669;48.712;9.016;2022-12-18T13:46:24;97543.38;;;-1.73;100.00
61769;BME280;47669;48.712;9.016;2022-12-18T13:48:55;97541.50;;;-1.94;100.00
61769;BME280;47669;48.712;9.016;2022-12-18T13:51:21;97535.72;;;-2.09;100.00
61769;BME280;47669;48.712;9.016;2022-12-18T13:53:50;97538.44;;;-1.88;100.00
61769;BME280;47669;48.712;9.016;2022-12-18T13:56:25;97543.28;;;-2.30;100.00
61769;BME280;47669;48.712;9.016;2022-12-18T13:59:13;97548.50;;;-2.19;100.00
61769;BME280;47669;48.712;9.016;2022-12-18T14:01:58;97553.25;;;-2.36;100.00
61769;BME280;47669;48.712;9.016;2022-12-18T14:04:27;97555.03;;;-2.61;100.00
61769;BME280;47669;48.712;9.016;2022-12-18T14:06:57;97550.63;;;-2.83;100.00
61769;BME280;47669;48.712;9.016;2022-12-18T14:09:30;97545.84;;;-2.77;100.00
61769;BME280;47669;48.712;9.016;2022-12-18T14:11:57;97536.69;;;-2.56;100.00
61769;BME280;47669;48.712;9.016;2022-12-18T14:14:48;97545.47;;;-2.83;100.00
61769;BME280;47669;48.712;9.016;2022-12-18T14:17:14;97545.38;;;-2.82;100.00
61769;BME280;47669;48.712;9.016;2022-12-18T14:19:45;97551.63;;;-2.97;100.00